Time;durP1;ratioP1;P1;durP2;ratioP2;P2;SDS_P1;SDS_P2;PMS_P1;PMS_P2;Temp;Humidity;BMP_temperature;BMP_pressure;BME280_temperature;BME280_humidity;BME280_pressure;Samples;Min_cycle;Max_cycle;Signal;HPM_P1;HPM_P2
2022/03/29 00:02:21;;;;;;;22.00;19.43;;;9.80;94.80;;;;;;5011970;28;20449;-70
2022/03/29 00:04:48;;;;;;;24.97;20.77;;;9.80;94.70;;;;;;5011551;28;20501;-70
2022/03/29 00:07:15;;;;;;;22.60;20.33;;;9.80;94.70;;;;;;5011762;28;20482;-69
2022/03/29 00:09:43;;;;;;;25.60;20.70;;;9.70;95.00;;;;;;5011564;28;20461;-70
2022/03/29 00:12:10;;;;;;;23.10;21.00;;;9.70;95.20;;;;;;5011555;28;20924;-71
2022/03/29 00:14:37;;;;;;;26.33;22.60;;;9.60;95.50;;;;;;5011587;28;20444;-71
2022/03/29 00:17:04;;;;;;;20.60;18.50;;;9.60;95.80;;;;;;5011589;28;20461;-70
2022/03/29 00:19:31;;;;;;;21.27;19.33;;;9.60;96.00;;;;;;5010775;28;20454;-70
2022/03/29 00:21:57;;;;;;;22.03;19.00;;;9.60;96.40;;;;;;5011199;28;20988;-70
2022/03/29 00:24:24;;;;;;;22.30;20.17;;;9.50;96.10;;;;;;5010994;28;20909;-69
2022/03/29 00:26:52;;;;;;;22.93;20.50;;;9.50;96.10;;;;;;5011234;28;20505;-70
2022/03/29 00:29:19;;;;;;;30.03;23.40;;;9.50;96.20;;;;;;5011497;28;20457;-69
2022/03/29 00:31:45;;;;;;;24.90;21.30;;;9.50;96.20;;;;;;5011365;28;20449;-70
2022/03/29 00:34:12;;;;;;;26.53;22.17;;;9.60;96.10;;;;;;5011330;28;20457;-70
2022/03/29 00:36:40;;;;;;;24.77;22.57;;;9.60;96.20;;;;;;5010957;28;20472;-70
2022/03/29 00:39:06;;;;;;;22.93;20.53;;;9.60;96.40;;;;;;5011299;28;20454;-70
2022/03/29 00:41:33;;;;;;;22.80;20.67;;;9.60;96.50;;;;;;5011176;28;20476;-70
2022/03/29 00:44:01;;;;;;;23.70;21.40;;;9.60;96.50;;;;;;5011234;28;20457;-70
2022/03/29 00:46:28;;;;;;;23.20;20.83;;;9.60;96.30;;;;;;5011114;28;20449;-70
2022/03/29 00:48:55;;;;;;;21.30;19.10;;;9.50;96.30;;;;;;5010936;28;20449;-70
2022/03/29 00:51:22;;;;;;;20.00;17.90;;;9.50;96.30;;;;;;5011033;28;20559;-70
2022/03/29 00:53:48;;;;;;;21.57;19.43;;;9.50;96.40;;;;;;5011077;28;20456;-70
2022/03/29 00:56:17;;;;;;;21.83;19.83;;;9.40;96.40;;;;;;5010896;28;20457;-70
2022/03/29 00:58:44;;;;;;;28.17;18.37;;;9.40;96.80;;;;;;5010834;28;20467;-70
2022/03/29 01:01:12;;;;;;;26.43;22.37;;;9.40;97.00;;;;;;5010796;28;20453;-71
2022/03/29 01:03:42;;;;;;;21.93;19.47;;;9.40;97.20;;;;;;5010428;28;20450;-71
2022/03/29 01:06:09;;;;;;;22.17;19.40;;;9.30;97.20;;;;;;5010730;28;20650;-70
2022/03/29 01:08:36;;;;;;;24.97;19.53;;;9.30;97.00;;;;;;5010864;28;20504;-71
2022/03/29 01:11:03;;;;;;;21.60;19.80;;;9.30;96.80;;;;;;5010927;28;20524;-70
2022/03/29 01:13:30;;;;;;;20.20;18.03;;;9.20;97.00;;;;;;5010810;28;20454;-70
2022/03/29 01:17:38;;;;;;;22.13;18.97;;;9.20;97.20;;;;;;5010498;28;20457;-71
2022/03/29 01:18:45;;;;;;;23.50;20.87;;;9.10;97.40;;;;;;5010446;28;20496;-70
2022/03/29 01:21:15;;;;;;;22.47;20.23;;;9.10;98.10;;;;;;5010683;28;20529;-70
2022/03/29 01:23:44;;;;;;;22.17;19.97;;;9.10;98.30;;;;;;5010523;28;20476;-69
2022/03/29 01:26:11;;;;;;;24.10;21.67;;;9.10;98.30;;;;;;5010167;28;20833;-70
2022/03/29 01:28:39;;;;;;;21.63;19.77;;;9.00;98.40;;;;;;5010535;28;20457;-70
2022/03/29 01:31:07;;;;;;;23.80;21.00;;;9.00;98.50;;;;;;5010298;28;20974;-70
2022/03/29 01:33:34;;;;;;;22.13;19.80;;;9.00;98.70;;;;;;5010632;28;20446;-71
2022/03/29 01:36:02;;;;;;;22.70;19.87;;;9.00;98.80;;;;;;5010390;28;20504;-70
2022/03/29 01:38:29;;;;;;;20.17;18.07;;;9.00;98.90;;;;;;5010172;28;20461;-70
2022/03/29 01:41:03;;;;;;;22.00;19.73;;;8.90;98.80;;;;;;5010158;28;20453;-70
2022/03/29 01:43:29;;;;;;;23.27;19.77;;;8.90;98.90;;;;;;5010573;28;20446;-71
2022/03/29 01:45:56;;;;;;;22.13;20.17;;;8.90;99.20;;;;;;5010216;28;20548;-71
2022/03/29 01:48:24;;;;;;;23.63;21.27;;;8.90;99.30;;;;;;5010052;28;20461;-71
2022/03/29 01:50:51;;;;;;;22.73;20.40;;;8.90;99.20;;;;;;5010485;28;20462;-71
2022/03/29 01:53:25;;;;;;;23.57;21.03;;;9.00;99.20;;;;;;5010270;28;20450;-71
2022/03/29 01:55:56;;;;;;;21.90;19.73;;;9.00;98.90;;;;;;5011159;28;20469;-71
2022/03/29 01:58:25;;;;;;;25.23;20.87;;;9.00;98.50;;;;;;5011159;28;20508;-72
2022/03/29 02:00:51;;;;;;;23.27;20.67;;;9.10;98.10;;;;;;5010568;28;20457;-71
2022/03/29 02:03:18;;;;;;;25.20;22.50;;;9.10;98.20;;;;;;5010312;28;20457;-70
2022/03/29 02:05:44;;;;;;;22.97;21.10;;;9.00;98.40;;;;;;5009857;28;20481;-70
2022/03/29 02:08:11;;;;;;;22.50;20.23;;;9.00;98.80;;;;;;5010200;28;20457;-70
2022/03/29 02:10:39;;;;;;;22.80;20.40;;;9.00;98.90;;;;;;5009985;28;20468;-70
2022/03/29 02:13:09;;;;;;;21.10;19.20;;;9.00;99.10;;;;;;5010398;28;20457;-70
2022/03/29 02:15:37;;;;;;;23.67;21.00;;;8.90;99.30;;;;;;5010238;28;20450;-71
2022/03/29 02:18:04;;;;;;;21.97;19.77;;;8.90;99.50;;;;;;5010263;28;20450;-71
2022/03/29 02:20:30;;;;;;;28.13;20.93;;;8.90;99.70;;;;;;5009745;28;20450;-71
2022/03/29 02:23:02;;;;;;;22.27;20.20;;;8.90;99.70;;;;;;5009879;28;20481;-71
2022/03/29 02:25:29;;;;;;;24.73;22.17;;;8.90;99.80;;;;;;5009715;28;20584;-71
2022/03/29 02:27:56;;;;;;;24.47;21.83;;;8.90;99.90;;;;;;5009623;28;20481;-71
2022/03/29 02:30:22;;;;;;;21.57;19.53;;;8.90;99.90;;;;;;5009724;28;20541;-71
2022/03/29 02:32:50;;;;;;;21.70;19.37;;;8.90;99.90;;;;;;5010004;28;20453;-71
2022/03/29 02:35:17;;;;;;;25.13;19.50;;;8.80;99.80;;;;;;5010160;28;20454;-71
2022/03/29 02:37:44;;;;;;;23.70;20.70;;;8.90;99.70;;;;;;5009963;28;20936;-70
2022/03/29 02:40:13;;;;;;;24.30;20.20;;;8.90;99.80;;;;;;5009573;28;20449;-70
2022/03/29 02:42:44;;;;;;;21.37;19.47;;;8.90;99.50;;;;;;5009692;28;20457;-70
2022/03/29 02:45:14;;;;;;;22.57;20.27;;;9.00;99.00;;;;;;5012881;28;20871;-70
2022/03/29 02:47:41;;;;;;;23.03;20.93;;;9.00;99.30;;;;;;5013141;28;20894;-70
2022/03/29 02:50:10;;;;;;;22.50;20.07;;;8.90;99.20;;;;;;5013245;28;20454;-70
2022/03/29 02:52:44;;;;;;;21.70;19.47;;;8.90;98.90;;;;;;5013079;28;20492;-71
2022/03/29 02:55:11;;;;;;;23.33;20.97;;;8.90;98.70;;;;;;5012781;28;20988;-71
2022/03/29 02:57:37;;;;;;;21.23;19.27;;;8.90;98.70;;;;;;5012939;28;21023;-71
2022/03/29 03:00:07;;;;;;;23.23;20.67;;;8.90;98.60;;;;;;5013328;28;20450;-71
2022/03/29 03:02:34;;;;;;;23.60;21.20;;;8.90;98.70;;;;;;5013165;28;20501;-71
2022/03/29 03:05:01;;;;;;;24.43;21.30;;;8.90;99.00;;;;;;5012803;28;20911;-71
2022/03/29 03:07:29;;;;;;;24.17;21.77;;;8.80;99.00;;;;;;5012570;28;20512;-71
2022/03/29 03:09:56;;;;;;;21.60;19.57;;;8.80;99.20;;;;;;5012652;28;21058;-71
2022/03/29 03:12:23;;;;;;;23.83;21.47;;;8.70;99.20;;;;;;5012561;28;20462;-71
2022/03/29 03:14:49;;;;;;;24.03;21.60;;;8.70;99.10;;;;;;5013006;28;20780;-71
2022/03/29 03:17:16;;;;;;;26.50;22.20;;;8.60;99.00;;;;;;5012557;28;20457;-73
2022/03/29 03:19:44;;;;;;;25.77;22.87;;;8.70;99.10;;;;;;5012770;28;20458;-71
2022/03/29 03:22:11;;;;;;;25.37;21.37;;;8.70;99.30;;;;;;5012490;28;20460;-71
2022/03/29 03:24:39;;;;;;;22.03;19.90;;;8.70;98.70;;;;;;5012472;28;21041;-71
2022/03/29 03:27:06;;;;;;;24.20;21.70;;;8.70;98.80;;;;;;5012556;28;20838;-71
2022/03/29 03:29:33;;;;;;;22.80;20.30;;;8.80;99.20;;;;;;5012432;28;20460;-71
2022/03/29 03:32:00;;;;;;;22.80;20.40;;;8.70;99.50;;;;;;5010138;28;20493;-71
2022/03/29 03:34:26;;;;;;;22.23;20.03;;;8.70;99.50;;;;;;5011307;28;20805;-71
2022/03/29 03:36:53;;;;;;;22.30;20.00;;;8.70;99.90;;;;;;5010865;28;20442;-71
2022/03/29 03:39:20;;;;;;;22.20;20.03;;;8.60;99.90;;;;;;5011893;28;20454;-71
2022/03/29 03:41:48;;;;;;;21.37;18.37;;;8.50;99.90;;;;;;5011665;28;20496;-71
2022/03/29 03:44:15;;;;;;;22.20;20.10;;;8.50;99.90;;;;;;5011392;28;20527;-71
2022/03/29 03:46:42;;;;;;;21.60;19.57;;;8.40;99.90;;;;;;5011348;28;21030;-71
2022/03/29 03:49:08;;;;;;;19.67;17.77;;;8.40;99.90;;;;;;5011551;28;20459;-71
2022/03/29 03:51:35;;;;;;;21.30;19.20;;;8.30;99.90;;;;;;5011605;28;20500;-71
2022/03/29 03:54:02;;;;;;;21.23;19.00;;;8.30;99.90;;;;;;5011132;28;20461;-72
2022/03/29 03:56:28;;;;;;;22.00;19.83;;;8.20;99.90;;;;;;5010790;28;20472;-72
2022/03/29 03:58:56;;;;;;;22.50;20.10;;;8.20;99.90;;;;;;5010776;28;20454;-72
2022/03/29 04:01:23;;;;;;;23.33;20.87;;;8.20;99.90;;;;;;5011134;28;20458;-72
2022/03/29 04:03:49;;;;;;;21.53;19.43;;;8.20;99.90;;;;;;5011476;28;20512;-72
2022/03/29 04:06:16;;;;;;;20.53;18.70;;;8.20;99.90;;;;;;5010906;28;20540;-72
2022/03/29 04:08:43;;;;;;;22.37;20.13;;;8.20;99.90;;;;;;5010855;28;20516;-70
2022/03/29 04:11:10;;;;;;;20.50;18.57;;;8.10;99.90;;;;;;5010856;28;20910;-70
2022/03/29 04:13:36;;;;;;;21.20;19.00;;;8.00;99.90;;;;;;5011156;28;20461;-70
2022/03/29 04:16:05;;;;;;;20.60;18.50;;;7.90;99.90;;;;;;5011069;28;20461;-70
2022/03/29 04:18:32;;;;;;;20.77;18.67;;;7.80;99.90;;;;;;5010673;28;20468;-70
2022/03/29 04:20:58;;;;;;;26.07;19.97;;;7.80;99.90;;;;;;5011048;28;20458;-69
2022/03/29 04:23:25;;;;;;;19.97;18.23;;;7.80;99.90;;;;;;5010720;28;20975;-69
2022/03/29 04:25:52;;;;;;;20.27;18.33;;;7.70;99.90;;;;;;5010692;28;20486;-70
2022/03/29 04:28:18;;;;;;;20.50;18.70;;;7.70;99.90;;;;;;5010954;28;20892;-70
2022/03/29 04:30:45;;;;;;;23.70;18.87;;;7.70;99.90;;;;;;5011213;28;20461;-70
2022/03/29 04:33:14;;;;;;;20.70;18.87;;;7.60;99.90;;;;;;5011140;28;20523;-71
2022/03/29 04:35:40;;;;;;;21.67;18.87;;;7.60;99.90;;;;;;5011295;28;20520;-70
2022/03/29 04:38:07;;;;;;;19.97;18.20;;;7.60;99.90;;;;;;5011428;28;20454;-70
2022/03/29 04:40:34;;;;;;;22.20;20.10;;;7.60;99.90;;;;;;5011412;28;20952;-70
2022/03/29 04:43:01;;;;;;;21.50;19.47;;;7.60;99.90;;;;;;5011103;28;20504;-71
2022/03/29 04:45:28;;;;;;;18.07;16.27;;;7.60;99.90;;;;;;5010972;28;20482;-71
2022/03/29 04:47:54;;;;;;;21.70;19.00;;;7.50;99.90;;;;;;5011539;28;20449;-71
2022/03/29 04:50:23;;;;;;;20.43;18.50;;;7.50;99.90;;;;;;5011258;28;20818;-71
2022/03/29 04:52:49;;;;;;;24.03;17.90;;;7.50;99.90;;;;;;5011004;28;20877;-71
2022/03/29 04:55:18;;;;;;;19.90;18.00;;;7.50;99.90;;;;;;5011077;28;20501;-72
2022/03/29 04:57:47;;;;;;;22.33;19.07;;;7.50;99.90;;;;;;5011243;28;20998;-72
2022/03/29 05:00:16;;;;;;;25.27;18.97;;;7.50;99.90;;;;;;5011058;28;20456;-71
2022/03/29 05:02:44;;;;;;;19.40;17.37;;;7.50;99.90;;;;;;5010725;28;20460;-71
2022/03/29 05:05:11;;;;;;;23.60;21.40;;;7.50;99.90;;;;;;5010640;28;20535;-74
2022/03/29 05:07:40;;;;;;;20.20;18.20;;;7.40;99.90;;;;;;5010497;28;20456;-69
2022/03/29 05:10:08;;;;;;;21.77;18.93;;;7.40;99.90;;;;;;5010942;28;20473;-71
2022/03/29 05:12:39;;;;;;;21.07;18.80;;;7.40;99.90;;;;;;5010819;28;20536;-71
2022/03/29 05:15:07;;;;;;;21.43;19.53;;;7.40;99.90;;;;;;5011056;28;20441;-73
2022/03/29 05:17:35;;;;;;;20.00;18.20;;;7.40;99.90;;;;;;5010845;28;20453;-72
2022/03/29 05:20:02;;;;;;;21.53;19.37;;;7.40;99.90;;;;;;5010695;28;20523;-69
2022/03/29 05:22:28;;;;;;;22.43;20.03;;;7.40;99.90;;;;;;5010424;28;21056;-70
2022/03/29 05:24:56;;;;;;;24.00;21.60;;;7.40;99.90;;;;;;5010394;28;20457;-70
2022/03/29 05:27:23;;;;;;;20.87;19.03;;;7.40;99.90;;;;;;5010181;28;20496;-71
2022/03/29 05:29:50;;;;;;;19.63;17.70;;;7.40;99.90;;;;;;5010613;28;20461;-70
2022/03/29 05:32:18;;;;;;;29.87;21.40;;;7.40;99.90;;;;;;5010623;28;20934;-71
2022/03/29 05:34:45;;;;;;;28.13;20.17;;;7.40;99.90;;;;;;5010445;28;20602;-71
2022/03/29 05:37:12;;;;;;;22.93;20.10;;;7.50;99.90;;;;;;5010152;28;20455;-70
2022/03/29 05:39:40;;;;;;;22.93;20.50;;;7.50;99.90;;;;;;5010345;28;21034;-71
2022/03/29 05:42:09;;;;;;;21.20;19.10;;;7.60;99.90;;;;;;5010447;28;20458;-71
2022/03/29 05:44:37;;;;;;;22.10;19.63;;;7.60;99.90;;;;;;5010719;28;20476;-71
2022/03/29 05:49:48;;;;;;;25.03;22.30;;;7.70;99.90;;;;;;5010743;28;20903;-71
2022/03/29 05:52:14;;;;;;;27.03;22.30;;;7.80;99.90;;;;;;5010294;28;20458;-71
2022/03/29 05:54:45;;;;;;;24.67;22.13;;;7.90;99.90;;;;;;5009994;28;20458;-71
2022/03/29 05:57:14;;;;;;;25.37;22.70;;;7.90;99.90;;;;;;5010225;28;20462;-72
2022/03/29 05:59:41;;;;;;;23.90;21.60;;;8.10;99.90;;;;;;5010015;28;20944;-70
2022/03/29 06:02:08;;;;;;;25.20;22.17;;;8.20;99.90;;;;;;5010437;28;20454;-72
2022/03/29 06:04:35;;;;;;;24.40;22.17;;;8.20;99.90;;;;;;5010413;28;20827;-72
2022/03/29 06:07:02;;;;;;;27.80;21.93;;;8.30;99.90;;;;;;5010092;28;20489;-71
2022/03/29 06:09:29;;;;;;;25.07;21.83;;;8.40;99.90;;;;;;5009802;28;20461;-72
2022/03/29 06:11:55;;;;;;;23.50;21.07;;;8.40;99.90;;;;;;5010720;28;20449;-73
2022/03/29 06:14:23;;;;;;;24.30;21.90;;;8.50;99.90;;;;;;5010537;28;20446;-73
2022/03/29 06:16:50;;;;;;;31.80;21.83;;;8.60;99.90;;;;;;5010210;28;20449;-73
2022/03/29 06:19:17;;;;;;;27.33;21.90;;;8.70;99.90;;;;;;5012423;28;20535;-73
2022/03/29 06:21:44;;;;;;;37.30;25.23;;;8.70;99.90;;;;;;5013812;28;20540;-72
2022/03/29 06:24:11;;;;;;;28.77;22.23;;;8.90;99.90;;;;;;5015681;28;20473;-76
2022/03/29 06:26:39;;;;;;;25.03;22.53;;;9.00;99.90;;;;;;5013882;28;20543;-76
2022/03/29 06:29:06;;;;;;;26.07;22.73;;;9.20;99.90;;;;;;5006315;28;20489;-74
2022/03/29 06:31:35;;;;;;;22.80;20.60;;;9.20;99.90;;;;;;5014048;28;20936;-71
2022/03/29 06:34:01;;;;;;;32.57;21.60;;;9.20;99.90;;;;;;5013301;28;20508;-73
2022/03/29 06:36:28;;;;;;;26.37;22.30;;;9.30;99.90;;;;;;5013138;28;20472;-72
2022/03/29 06:38:55;;;;;;;22.93;20.63;;;9.40;99.90;;;;;;5012746;28;20500;-72
2022/03/29 06:41:22;;;;;;;27.03;21.60;;;9.40;99.90;;;;;;5013028;28;20462;-72
2022/03/29 06:43:49;;;;;;;30.57;22.20;;;9.40;99.90;;;;;;5013073;28;20473;-72
2022/03/29 06:46:16;;;;;;;23.33;21.13;;;9.40;99.90;;;;;;5012507;28;20511;-73
2022/03/29 06:48:45;;;;;;;26.03;20.03;;;9.40;99.90;;;;;;5012648;28;20695;-73
2022/03/29 06:51:13;;;;;;;24.80;20.40;;;9.50;99.90;;;;;;5012690;28;20821;-73
2022/03/29 06:53:40;;;;;;;22.83;20.00;;;9.60;99.90;;;;;;5012568;28;20485;-71
2022/03/29 06:56:07;;;;;;;31.80;21.90;;;9.80;99.90;;;;;;5012815;28;20864;-73
2022/03/29 06:58:34;;;;;;;23.00;20.87;;;9.90;99.80;;;;;;5012709;28;20799;-72
2022/03/29 07:01:00;;;;;;;24.30;20.60;;;9.90;99.50;;;;;;5012819;28;20449;-72
2022/03/29 07:03:27;;;;;;;25.00;22.30;;;9.90;99.50;;;;;;5012433;28;20453;-73
2022/03/29 07:05:55;;;;;;;24.00;21.60;;;10.00;98.60;;;;;;5012066;28;20446;-72
2022/03/29 07:08:22;;;;;;;23.17;20.97;;;10.10;98.20;;;;;;5012586;28;20451;-72
2022/03/29 07:13:34;;;;;;;35.53;23.87;;;10.20;97.90;;;;;;5012469;28;20751;-74
2022/03/29 07:16:01;;;;;;;31.73;26.03;;;10.30;97.70;;;;;;5012115;28;20963;-72
2022/03/29 07:18:27;;;;;;;24.07;21.60;;;10.30;97.70;;;;;;5011938;28;20979;-73
2022/03/29 07:20:55;;;;;;;26.40;23.90;;;10.40;96.90;;;;;;5012547;28;20452;-73
2022/03/29 07:23:22;;;;;;;29.07;23.50;;;10.50;97.00;;;;;;5012116;28;20481;-73
2022/03/29 07:25:49;;;;;;;28.90;22.00;;;10.60;96.70;;;;;;5012656;28;20458;-74
2022/03/29 07:28:15;;;;;;;26.27;22.20;;;10.60;96.80;;;;;;5011643;28;20481;-73
2022/03/29 07:30:43;;;;;;;25.87;23.13;;;10.60;96.60;;;;;;5011296;28;20457;-72
2022/03/29 07:33:11;;;;;;;24.37;21.23;;;10.70;96.40;;;;;;5011830;28;20543;-72
2022/03/29 07:35:38;;;;;;;28.27;22.37;;;10.80;96.10;;;;;;5011539;28;20453;-72
2022/03/29 07:38:09;;;;;;;25.80;23.23;;;10.80;96.20;;;;;;5012247;28;20442;-72
2022/03/29 07:40:37;;;;;;;25.73;23.27;;;11.10;95.50;;;;;;5012196;28;20947;-73
2022/03/29 07:43:05;;;;;;;26.47;23.87;;;11.20;95.70;;;;;;5012198;28;20516;-73
2022/03/29 07:45:32;;;;;;;33.50;25.97;;;11.50;94.80;;;;;;5011553;28;20481;-73
2022/03/29 07:48:02;;;;;;;37.93;26.17;;;11.70;94.10;;;;;;5011452;28;20485;-72
2022/03/29 07:50:29;;;;;;;35.00;24.90;;;11.70;93.80;;;;;;5011623;28;20465;-73
2022/03/29 07:52:57;;;;;;;42.10;29.30;;;11.90;93.70;;;;;;5011477;28;20520;-73
2022/03/29 07:55:26;;;;;;;36.43;26.00;;;12.20;93.20;;;;;;5011230;28;20454;-73
2022/03/29 07:57:52;;;;;;;31.70;24.77;;;12.40;92.80;;;;;;5011563;28;20453;-73
2022/03/29 08:00:35;;;;;;;28.40;25.27;;;12.60;92.70;;;;;;5011646;28;20458;-74
2022/03/29 08:03:05;;;;;;;28.67;25.83;;;12.60;92.10;;;;;;5011218;28;20924;-72
2022/03/29 08:05:32;;;;;;;27.27;24.40;;;12.60;91.60;;;;;;5011211;28;20461;-73
2022/03/29 08:07:59;;;;;;;27.43;24.47;;;12.70;91.70;;;;;;5011024;28;20668;-72
2022/03/29 08:10:28;;;;;;;33.73;25.00;;;12.80;91.30;;;;;;5010893;28;20455;-73
2022/03/29 08:12:56;;;;;;;32.20;27.40;;;13.00;91.00;;;;;;5010998;28;20477;-74
2022/03/29 08:15:23;;;;;;;27.00;23.90;;;13.00;90.80;;;;;;5011200;28;20959;-73
2022/03/29 08:17:50;;;;;;;27.40;24.03;;;13.30;90.50;;;;;;5011237;28;20446;-73
2022/03/29 08:20:18;;;;;;;30.03;23.77;;;13.30;90.10;;;;;;5010718;28;20497;-73
2022/03/29 08:22:46;;;;;;;25.13;22.53;;;13.70;89.20;;;;;;5010930;28;20453;-72
2022/03/29 08:25:14;;;;;;;27.07;23.00;;;13.70;87.90;;;;;;5010949;28;20461;-73
2022/03/29 08:27:43;;;;;;;26.93;24.33;;;14.00;87.70;;;;;;5010908;28;20497;-73
2022/03/29 08:30:11;;;;;;;28.63;22.90;;;14.10;86.20;;;;;;5010773;28;20500;-74
2022/03/29 08:32:38;;;;;;;25.53;22.90;;;14.50;85.10;;;;;;5010624;28;20971;-74
2022/03/29 08:35:06;;;;;;;30.40;22.23;;;14.50;84.00;;;;;;5011397;28;20454;-73
2022/03/29 08:37:35;;;;;;;25.60;23.10;;;14.50;82.80;;;;;;5010718;28;20512;-73
2022/03/29 08:40:02;;;;;;;24.53;21.90;;;14.30;84.50;;;;;;5010188;28;20454;-73
2022/03/29 08:42:30;;;;;;;24.23;21.73;;;14.40;83.80;;;;;;5009932;28;20453;-74
2022/03/29 08:44:58;;;;;;;25.83;23.17;;;14.40;82.90;;;;;;5010326;28;20999;-74
2022/03/29 08:47:26;;;;;;;24.93;22.43;;;14.40;81.50;;;;;;5010581;28;20493;-74
2022/03/29 08:49:53;;;;;;;23.23;21.07;;;14.80;80.90;;;;;;5010560;28;20458;-74
2022/03/29 08:52:21;;;;;;;24.50;22.17;;;14.70;80.20;;;;;;5010424;28;20453;-74
2022/03/29 08:54:49;;;;;;;22.30;20.20;;;14.70;79.60;;;;;;5010229;28;20536;-73
2022/03/29 08:57:15;;;;;;;24.10;21.80;;;14.60;80.30;;;;;;5010416;28;20454;-72
2022/03/29 08:59:43;;;;;;;22.07;19.80;;;14.60;80.20;;;;;;5010234;28;20512;-74
2022/03/29 09:02:12;;;;;;;22.70;20.70;;;14.60;80.30;;;;;;5009904;28;20543;-72
2022/03/29 09:04:39;;;;;;;22.27;19.67;;;14.80;79.80;;;;;;5009916;28;20458;-72
2022/03/29 09:07:06;;;;;;;23.10;21.10;;;14.80;79.30;;;;;;5010263;28;20481;-72
2022/03/29 09:09:34;;;;;;;23.40;21.30;;;15.20;78.50;;;;;;5010161;28;20460;-74
2022/03/29 09:12:17;;;;;;;23.47;21.33;;;15.30;77.60;;;;;;5009679;28;20461;-73
2022/03/29 09:14:52;;;;;;;23.87;21.87;;;15.50;76.90;;;;;;5009992;28;20454;-73
2022/03/29 09:17:31;;;;;;;24.13;22.07;;;15.60;76.80;;;;;;5009924;28;20508;-73
2022/03/29 09:19:59;;;;;;;26.33;23.77;;;16.10;76.40;;;;;;5009951;28;20461;-73
2022/03/29 09:22:42;;;;;;;24.23;22.13;;;16.60;74.80;;;;;;5009955;28;20477;-75
2022/03/29 09:25:11;;;;;;;24.80;22.53;;;17.70;72.60;;;;;;5010089;28;20492;-73
2022/03/29 09:27:51;;;;;;;31.73;23.47;;;18.30;69.10;;;;;;5009414;28;20496;-75
2022/03/29 09:30:19;;;;;;;26.93;24.20;;;18.40;67.70;;;;;;5010029;28;20458;-72
2022/03/29 09:32:56;;;;;;;26.67;24.03;;;18.60;66.40;;;;;;5009698;28;20453;-72
2022/03/29 09:35:24;;;;;;;30.63;27.43;;;18.50;65.80;;;;;;5010719;28;20546;-71
2022/03/29 09:37:51;;;;;;;26.33;23.67;;;18.70;65.50;;;;;;5011115;28;20573;-72
2022/03/29 09:40:18;;;;;;;26.87;22.60;;;18.80;64.70;;;;;;5010618;28;20454;-72
2022/03/29 09:43:00;;;;;;;25.77;23.33;;;18.90;64.30;;;;;;5010804;28;20457;-72
2022/03/29 09:45:42;;;;;;;29.10;23.63;;;19.20;63.00;;;;;;5010439;28;20454;-72
2022/03/29 09:48:30;;;;;;;26.27;24.00;;;19.80;61.30;;;;;;5010609;28;20524;-72
2022/03/29 09:50:59;;;;;;;28.03;25.40;;;20.60;58.40;;;;;;5010254;28;20948;-72
2022/03/29 09:53:40;;;;;;;28.50;25.07;;;20.90;57.40;;;;;;5013141;28;20454;-72
2022/03/29 09:56:08;;;;;;;27.07;24.63;;;21.20;56.00;;;;;;5014417;28;20947;-72
2022/03/29 09:58:35;;;;;;;27.33;24.50;;;21.60;55.60;;;;;;5014631;28;20453;-73
2022/03/29 10:01:03;;;;;;;25.13;23.13;;;22.30;53.80;;;;;;5014494;28;20484;-73
2022/03/29 10:03:34;;;;;;;27.87;25.10;;;23.20;52.10;;;;;;5014430;28;20468;-73
2022/03/29 10:06:06;;;;;;;27.43;24.97;;;23.00;50.80;;;;;;5014281;28;20450;-71
2022/03/29 10:11:21;;;;;;;26.83;24.50;;;24.30;48.60;;;;;;5014532;28;20425;-72
2022/03/29 10:13:48;;;;;;;28.63;26.20;;;24.80;47.30;;;;;;5014313;28;20890;-73
2022/03/29 10:16:17;;;;;;;26.97;24.60;;;24.70;46.50;;;;;;5013997;28;20456;-73
2022/03/29 10:18:47;;;;;;;27.67;25.07;;;24.80;45.00;;;;;;5014022;28;20787;-72
2022/03/29 10:21:15;;;;;;;28.90;25.90;;;25.00;45.40;;;;;;5013800;28;20875;-74
2022/03/29 10:23:44;;;;;;;26.90;24.50;;;24.80;44.10;;;;;;5013623;28;20473;-73
2022/03/29 10:26:14;;;;;;;27.50;25.40;;;24.80;43.70;;;;;;5013627;28;20454;-73
2022/03/29 10:28:41;;;;;;;27.27;24.53;;;25.00;43.90;;;;;;5013316;28;21011;-73
2022/03/29 10:31:33;;;;;;;25.30;23.20;;;24.60;43.50;;;;;;5013731;28;20454;-71
2022/03/29 10:34:16;;;;;;;26.87;24.43;;;24.20;43.50;;;;;;5014026;28;20481;-71
2022/03/29 10:37:08;;;;;;;26.97;24.40;;;23.90;43.40;;;;;;5013860;28;20453;-72
2022/03/29 10:39:53;;;;;;;27.70;25.33;;;23.50;44.30;;;;;;5013860;28;20472;-73
2022/03/29 10:42:32;;;;;;;26.50;23.43;;;23.40;44.60;;;;;;5013994;28;20445;-72
2022/03/29 10:45:06;;;;;;;29.60;24.13;;;23.50;44.60;;;;;;5013645;28;20445;-72
2022/03/29 10:47:34;;;;;;;26.83;24.53;;;23.70;44.10;;;;;;5013871;28;20476;-72
2022/03/29 10:50:03;;;;;;;27.20;24.50;;;23.70;43.20;;;;;;5013384;28;20497;-73
2022/03/29 10:52:37;;;;;;;24.67;22.77;;;24.30;43.60;;;;;;5013330;28;20508;-72
2022/03/29 10:55:27;;;;;;;27.70;25.10;;;24.50;42.40;;;;;;5013844;28;20457;-73
2022/03/29 10:58:13;;;;;;;26.97;24.43;;;24.20;42.80;;;;;;5013612;28;20477;-73
2022/03/29 11:00:42;;;;;;;26.10;24.20;;;24.40;42.50;;;;;;5013333;28;21149;-73
2022/03/29 11:03:14;;;;;;;24.47;22.50;;;24.50;42.40;;;;;;5012860;28;20472;-73
2022/03/29 11:06:11;;;;;;;28.37;25.70;;;23.60;43.30;;;;;;5012770;28;20948;-73
2022/03/29 11:08:41;;;;;;;27.10;24.67;;;22.60;44.50;;;;;;5013312;28;20485;-72
2022/03/29 11:11:09;;;;;;;25.70;23.40;;;22.20;45.40;;;;;;5013366;28;20458;-73
2022/03/29 11:13:38;;;;;;;26.80;24.33;;;22.00;46.00;;;;;;5013332;28;20480;-72
2022/03/29 11:16:31;;;;;;;27.23;24.43;;;21.80;46.50;;;;;;5013142;28;20446;-73
2022/03/29 11:18:58;;;;;;;29.40;24.67;;;22.50;46.20;;;;;;5012912;28;20441;-74
2022/03/29 11:21:43;;;;;;;26.43;24.40;;;22.80;44.90;;;;;;5012951;28;20823;-74
2022/03/29 11:24:13;;;;;;;26.70;24.03;;;22.80;44.90;;;;;;5010270;28;20540;-74
2022/03/29 11:26:54;;;;;;;25.23;22.73;;;23.40;44.70;;;;;;5012146;28;20454;-74
2022/03/29 11:29:21;;;;;;;29.50;26.30;;;23.30;44.00;;;;;;5012690;28;20524;-74
2022/03/29 11:31:50;;;;;;;28.83;26.00;;;23.70;43.40;;;;;;5012650;28;20748;-74
2022/03/29 11:34:17;;;;;;;28.73;26.33;;;23.90;43.00;;;;;;5012367;28;20446;-74
2022/03/29 11:36:45;;;;;;;28.83;26.47;;;23.70;42.60;;;;;;5012118;28;20457;-73
2022/03/29 11:39:26;;;;;;;25.40;23.30;;;23.40;43.30;;;;;;5011928;28;20454;-74
2022/03/29 11:41:56;;;;;;;26.60;24.40;;;24.30;42.20;;;;;;5012088;28;20966;-73
2022/03/29 11:44:27;;;;;;;28.47;25.77;;;23.90;42.30;;;;;;5011641;28;20947;-73
2022/03/29 11:46:56;;;;;;;28.90;26.20;;;24.20;42.60;;;;;;5011798;28;20904;-73
2022/03/29 11:49:26;;;;;;;28.10;25.70;;;24.00;42.00;;;;;;5011891;28;20507;-74
2022/03/29 11:52:08;;;;;;;28.23;26.10;;;23.20;42.50;;;;;;5012414;28;20461;-74
2022/03/29 11:54:47;;;;;;;28.70;26.20;;;23.10;43.60;;;;;;5011825;28;20457;-74
2022/03/29 11:57:19;;;;;;;26.57;24.43;;;23.40;42.60;;;;;;5012250;28;20824;-74
2022/03/29 11:59:46;;;;;;;27.90;25.30;;;23.90;42.50;;;;;;5011727;28;20892;-72
2022/03/29 12:02:12;;;;;;;26.40;24.00;;;24.70;42.00;;;;;;5011703;28;20450;-73
2022/03/29 12:04:39;;;;;;;28.10;25.70;;;25.10;41.30;;;;;;5011399;28;20944;-73
2022/03/29 12:07:07;;;;;;;28.27;25.83;;;25.40;40.30;;;;;;5011778;28;21245;-73
2022/03/29 12:09:34;;;;;;;25.93;23.70;;;25.20;40.70;;;;;;5011493;28;21016;-74
2022/03/29 12:12:03;;;;;;;28.40;25.70;;;25.00;40.70;;;;;;5011545;28;20950;-73
2022/03/29 12:14:31;;;;;;;29.30;26.63;;;24.90;40.80;;;;;;5011546;28;20454;-73
2022/03/29 12:17:04;;;;;;;26.47;23.97;;;25.30;40.50;;;;;;5011184;28;20462;-75
2022/03/29 12:19:32;;;;;;;27.37;25.03;;;25.40;40.30;;;;;;5011346;28;20456;-72
2022/03/29 12:22:01;;;;;;;29.13;26.93;;;26.10;39.30;;;;;;5011144;28;20461;-73
2022/03/29 12:24:32;;;;;;;30.17;27.90;;;26.40;38.50;;;;;;5010847;28;20509;-74
2022/03/29 12:27:04;;;;;;;29.03;26.63;;;26.00;38.30;;;;;;5011126;28;20509;-72
2022/03/29 12:29:33;;;;;;;29.20;26.73;;;25.90;38.60;;;;;;5011366;28;20485;-73
2022/03/29 12:32:02;;;;;;;30.80;27.97;;;25.90;38.40;;;;;;5010923;28;20457;-73
2022/03/29 12:34:31;;;;;;;28.37;26.07;;;25.80;38.50;;;;;;5010813;28;20453;-73
2022/03/29 12:37:00;;;;;;;28.20;25.70;;;25.90;38.50;;;;;;5010956;28;20889;-73
2022/03/29 12:39:34;;;;;;;31.03;27.80;;;25.60;38.40;;;;;;5010934;28;20536;-73
2022/03/29 12:42:01;;;;;;;26.60;24.20;;;24.80;39.10;;;;;;5010745;28;20458;-73
2022/03/29 12:44:31;;;;;;;27.77;25.03;;;24.20;40.40;;;;;;5010836;28;20457;-74
2022/03/29 12:46:59;;;;;;;28.03;25.83;;;24.50;40.30;;;;;;5011091;28;20902;-73
2022/03/29 12:49:25;;;;;;;26.23;24.03;;;24.60;39.70;;;;;;5010590;28;20489;-73
2022/03/29 12:51:54;;;;;;;27.37;24.67;;;24.60;39.80;;;;;;5010665;28;20457;-73